KRFD

Chicago / Rockford International Airport

Chicago/Rockford, Illinois, USA
METAR KRFD 110254Z 23005KT 8SM FEW250 M02/M06 A3015 RMK AO2 SLP221 T10171056 56009
Observed Flight Rules
Dec-11 @ 02:54 UTC (14 minutes ago) Visual Flight Rules
Wind Visibility Clouds
230° at 5 knots 8 miles
  • Few at 25,000' AGL
Temperatures Readings
Current -2°C / 28°F
Dewpoint -6°C / 21°F
Humidity 74%
Altimeter 30.15" Hg
Pressure 1022.1 hPa
Elevation 221
METAR KRFD 110254Z 23005KT 8SM FEW250 M02/M06 A3015 RMK AO2 SLP221 T10171056 56009
Observed Flight Rules
Dec-11 @ 02:54 UTC
(14 minutes ago)
VFR
Wind Visibility
230° at 5 knots 8 miles
Clouds
  • Few at 25,000' AGL
Temperature Dewpoint
-2°C / 28°F -6°C / 21°F
Humidity Altimeter Pressure
74% 30.15" Hg 1022.1 hPa